Bartonville, Texas
Current Conditions -  °F | °C
As of 3:53 PM on Monday 20 Oct 2014 (Local Time) from KDTO Reporting Station
Clear Clear  
Wind Chill: 27°   Ceiling: Unl
Heat Index: 27°   Visibility: 10mi
Dew Point: 14°   Wind: 3mph
Humidity: 45%   Direction: 250°WSW
Pressure: 30"   Gusts: NA
Location:  33.108°N, 97.1641°W
Report Text: KDTO 202053Z 25003KT 10SM CLR 27/14 A3000 RMK AO2 SLP153 T02720144 56022
Loading
Personal Weather Stations






























Interactive Weather Map
Tropical Storm Tracking
New forecast layout! Learn more

10-Day Weather Forecast

Advertisements
Track Severe Weather on mobile